createdAt,value
2022-10-02T00:01:31.921Z,100094.13
2022-10-02T00:06:59.684Z,100092.72
2022-10-02T00:12:18.324Z,100099.09
2022-10-02T00:17:47.165Z,100106.69
2022-10-02T00:23:01.320Z,100112.22
2022-10-02T00:28:39.149Z,100113.03
2022-10-02T00:34:20.961Z,100113.03
2022-10-02T00:39:51.208Z,100126.16
2022-10-02T00:45:21.966Z,100116.13
2022-10-02T00:50:43.294Z,100128.38
2022-10-02T00:56:02.982Z,100131.00
2022-10-02T01:01:14.798Z,100132.94
2022-10-02T01:06:30.957Z,100128.13
2022-10-02T01:11:46.328Z,100138.78
2022-10-02T01:16:52.047Z,100143.47
2022-10-02T01:22:26.034Z,100142.78
2022-10-02T01:27:39.221Z,100148.31
2022-10-02T01:32:59.562Z,100152.72
2022-10-02T01:38:13.012Z,100154.38
2022-10-02T01:44:01.723Z,100165.81
2022-10-02T01:49:49.160Z,100166.63
2022-10-02T01:55:16.512Z,100170.72
2022-10-02T02:00:29.033Z,100179.03
2022-10-02T02:05:49.604Z,100176.94
2022-10-02T02:11:04.966Z,100188.97
2022-10-02T02:16:18.322Z,100186.59
2022-10-02T02:21:31.557Z,100191.25
2022-10-02T02:27:22.026Z,100176.88
2022-10-02T02:33:00.207Z,100189.50
2022-10-02T02:38:23.487Z,100193.34
2022-10-02T02:43:35.404Z,100189.53
2022-10-02T02:48:49.282Z,100198.50
2022-10-02T02:54:13.992Z,100197.94
2022-10-02T02:59:28.631Z,100198.13
2022-10-02T03:04:40.555Z,100196.03
2022-10-02T03:10:03.715Z,100194.38
2022-10-02T03:15:32.597Z,100193.69
2022-10-02T03:20:49.033Z,100199.38
2022-10-02T03:26:05.200Z,100207.50
2022-10-02T03:31:22.961Z,100207.66
2022-10-02T03:36:51.725Z,100197.31
2022-10-02T03:41:57.474Z,100206.28
2022-10-02T03:47:11.049Z,100213.03
2022-10-02T03:52:28.299Z,100217.97
2022-10-02T03:57:38.728Z,100202.91
2022-10-02T04:02:50.172Z,100197.13
2022-10-02T04:08:04.959Z,100208.28
2022-10-02T04:13:23.968Z,100214.47
2022-10-02T04:18:44.591Z,100234.50
2022-10-02T04:24:13.396Z,100225.50
2022-10-02T04:29:30.221Z,100215.19
2022-10-02T04:34:51.416Z,100215.72
2022-10-02T04:40:17.504Z,100222.75
2022-10-02T04:45:53.113Z,100232.97
2022-10-02T04:51:11.105Z,100235.31
2022-10-02T04:57:32.554Z,100227.91
2022-10-02T05:03:00.135Z,100247.94
2022-10-02T05:08:44.588Z,100243.78
2022-10-02T05:14:35.701Z,100245.31
2022-10-02T05:20:00.338Z,100236.59
2022-10-02T05:25:23.688Z,100245.72
2022-10-02T05:30:47.712Z,100240.91
2022-10-02T05:36:35.993Z,100240.22
2022-10-02T05:41:50.472Z,100230.72
2022-10-02T05:47:18.019Z,100231.38
2022-10-02T05:58:21.679Z,100234.97
2022-10-02T06:03:45.019Z,100239.34
2022-10-02T06:09:03.211Z,100234.38
2022-10-02T06:14:17.436Z,100230.91
2022-10-02T06:19:45.062Z,100237.78
2022-10-02T06:25:05.547Z,100241.06
2022-10-02T06:30:24.271Z,100227.38
2022-10-02T06:35:55.654Z,100230.91
2022-10-02T06:41:19.144Z,100225.50
2022-10-02T06:46:37.280Z,100229.72
2022-10-02T06:52:09.346Z,100241.63
2022-10-02T06:57:41.440Z,100253.16
2022-10-02T07:03:24.166Z,100248.53
2022-10-02T07:08:52.097Z,100239.72
2022-10-02T07:14:44.722Z,100232.88
2022-10-02T07:20:15.723Z,100236.03
2022-10-02T07:26:08.727Z,100245.75
2022-10-02T07:37:21.021Z,100243.25
2022-10-02T07:43:42.913Z,100241.59
2022-10-02T07:49:37.907Z,100260.09
2022-10-02T07:55:21.459Z,100259.47
2022-10-02T08:00:43.668Z,100246.84
2022-10-02T08:05:56.872Z,100251.19
2022-10-02T08:11:47.250Z,100254.28
2022-10-02T08:17:24.583Z,100267.34
2022-10-02T08:22:45.203Z,100258.59
2022-10-02T08:28:23.052Z,100260.56
2022-10-02T08:39:06.141Z,100255.97
2022-10-02T08:45:32.555Z,100252.97
2022-10-02T08:57:22.919Z,100263.22
2022-10-02T09:03:06.274Z,100245.56
2022-10-02T09:09:06.326Z,100247.69
2022-10-02T09:14:58.159Z,100240.91
2022-10-02T09:20:50.867Z,100237.94
2022-10-02T09:26:09.823Z,100225.13
2022-10-02T09:32:25.243Z,100220.13
2022-10-02T09:38:07.882Z,100228.00
2022-10-02T09:44:10.034Z,100218.06
2022-10-02T09:50:07.564Z,100216.28
2022-10-02T10:01:58.698Z,100220.66
2022-10-02T10:08:00.152Z,100224.72
2022-10-02T10:13:58.982Z,100219.59
2022-10-02T10:25:41.812Z,100212.25
2022-10-02T10:31:40.709Z,100213.63
2022-10-02T10:37:20.868Z,100198.41
2022-10-02T10:43:08.688Z,100205.06
2022-10-02T10:48:56.520Z,100226.16
2022-10-02T10:54:51.134Z,100206.09
2022-10-02T11:00:15.927Z,100198.88
2022-10-02T11:05:54.759Z,100192.84
2022-10-02T11:11:11.504Z,100198.72
2022-10-02T11:16:48.750Z,100201.00
2022-10-02T11:22:20.667Z,100198.38
2022-10-02T11:27:48.412Z,100207.25
2022-10-02T11:33:24.089Z,100195.63
2022-10-02T11:39:21.435Z,100188.69
2022-10-02T11:44:56.696Z,100189.22
2022-10-02T11:50:37.255Z,100188.06
2022-10-02T11:56:01.425Z,100182.09
2022-10-02T12:07:29.411Z,100175.50
2022-10-02T12:12:56.228Z,100177.66
2022-10-02T12:18:33.148Z,100180.53
2022-10-02T12:24:08.162Z,100191.22
2022-10-02T12:29:25.526Z,100175.84
2022-10-02T12:35:01.141Z,100174.00
2022-10-02T12:40:39.144Z,100165.06
2022-10-02T12:46:42.308Z,100162.28
2022-10-02T12:52:12.936Z,100168.59
2022-10-02T12:57:46.398Z,100170.75
2022-10-02T13:03:31.992Z,100178.47
2022-10-02T13:08:57.103Z,100175.97
2022-10-02T13:14:40.379Z,100177.78
2022-10-02T13:20:02.237Z,100176.56
2022-10-02T13:25:57.757Z,100162.03
2022-10-02T13:31:25.782Z,100164.78
2022-10-02T13:36:58.127Z,100167.84
2022-10-02T13:42:21.913Z,100173.41
2022-10-02T13:47:44.360Z,100168.94
2022-10-02T13:53:08.063Z,100179.75
2022-10-02T13:58:55.886Z,100175.53
2022-10-02T14:04:50.301Z,100178.97
2022-10-02T14:10:05.577Z,100185.28
2022-10-02T14:15:40.172Z,100189.66
2022-10-02T14:21:00.083Z,100187.25
2022-10-02T14:26:18.954Z,100191.09
2022-10-02T14:32:07.086Z,100203.84
2022-10-02T14:37:44.152Z,100198.78
2022-10-02T14:43:16.234Z,100204.97
2022-10-02T14:48:46.232Z,100201.38
2022-10-02T14:54:29.699Z,100207.38
2022-10-02T15:00:06.187Z,100203.78
2022-10-02T15:05:43.254Z,100207.25
2022-10-02T15:10:55.453Z,100208.00
2022-10-02T15:16:31.937Z,100212.63
2022-10-02T15:21:48.457Z,100203.56
2022-10-02T15:27:09.863Z,100229.53
2022-10-02T15:32:38.016Z,100262.56
2022-10-02T15:38:09.940Z,100253.81
2022-10-02T15:43:43.745Z,100253.69
2022-10-02T15:49:09.140Z,100271.75
2022-10-02T15:54:35.355Z,100270.13
2022-10-02T16:00:16.011Z,100280.41
2022-10-02T16:05:38.125Z,100286.34
2022-10-02T16:11:13.761Z,100287.00
2022-10-02T16:16:34.990Z,100291.16
2022-10-02T16:21:51.493Z,100300.19
2022-10-02T16:27:42.628Z,100319.47
2022-10-02T16:33:15.539Z,100324.38
2022-10-02T16:38:30.098Z,100334.41
2022-10-02T16:44:01.268Z,100329.41
2022-10-02T16:49:22.345Z,100341.22
2022-10-02T16:54:41.270Z,100348.25
2022-10-02T16:59:57.485Z,100344.28
2022-10-02T17:05:11.235Z,100346.03
2022-10-02T17:10:34.930Z,100350.22
2022-10-02T17:15:52.458Z,100366.34
2022-10-02T17:21:04.181Z,100380.69
2022-10-02T17:26:26.393Z,100388.59
2022-10-02T17:32:00.394Z,100411.84
2022-10-02T17:37:37.468Z,100422.34
2022-10-02T17:43:00.597Z,100416.59
2022-10-02T17:48:38.468Z,100431.63
2022-10-02T17:54:21.102Z,100439.66
2022-10-02T18:00:06.335Z,100436.41
2022-10-02T18:05:33.362Z,100452.22
2022-10-02T18:10:52.039Z,100460.81
2022-10-02T18:16:24.137Z,100469.41
2022-10-02T18:21:35.839Z,100470.94
2022-10-02T18:26:56.656Z,100475.06
2022-10-02T18:32:41.935Z,100482.97
2022-10-02T18:38:01.606Z,100485.91
2022-10-02T18:43:31.698Z,100482.19
2022-10-02T18:48:54.524Z,100490.78
2022-10-02T18:54:28.730Z,100486.75
2022-10-02T19:06:06.133Z,100508.19
2022-10-02T19:11:23.950Z,100513.44
2022-10-02T19:16:37.844Z,100518.97
2022-10-02T19:21:59.125Z,100528.50
2022-10-02T19:27:17.890Z,100536.91
2022-10-02T19:32:35.011Z,100539.97
2022-10-02T19:38:03.956Z,100544.78
2022-10-02T19:43:26.389Z,100547.28
2022-10-02T19:48:42.872Z,100564.69
2022-10-02T19:53:55.970Z,100564.41
2022-10-02T19:59:16.793Z,100566.75
2022-10-02T20:04:26.956Z,100577.09
2022-10-02T20:09:39.174Z,100578.28
2022-10-02T20:14:55.163Z,100586.59
2022-10-02T20:20:12.496Z,100593.31
2022-10-02T20:25:37.180Z,100600.78
2022-10-02T20:30:58.347Z,100602.00
2022-10-02T20:36:16.569Z,100614.81
2022-10-02T20:41:30.581Z,100609.69
2022-10-02T20:47:32.680Z,100627.78
2022-10-02T20:53:02.530Z,100637.72
2022-10-02T20:58:50.143Z,100642.81
2022-10-02T21:04:55.824Z,100650.38
2022-10-02T21:10:44.095Z,100657.41
2022-10-02T21:16:45.663Z,100664.09
2022-10-02T21:22:31.008Z,100669.50
2022-10-02T21:28:30.476Z,100681.91
2022-10-02T21:33:47.241Z,100684.31
2022-10-02T21:39:44.904Z,100692.34
2022-10-02T21:45:38.080Z,100689.25
2022-10-02T21:51:37.982Z,100691.53
2022-10-02T21:57:31.413Z,100702.44
2022-10-02T22:03:31.343Z,100703.63
2022-10-02T22:08:50.019Z,100711.72
2022-10-02T22:14:11.964Z,100716.41
2022-10-02T22:19:51.080Z,100723.31
2022-10-02T22:25:27.230Z,100719.84
2022-10-02T22:30:54.777Z,100730.00
2022-10-02T22:36:38.754Z,100733.56
2022-10-02T22:42:05.546Z,100730.00
2022-10-02T22:47:44.067Z,100727.97
2022-10-02T22:52:58.666Z,100742.03
2022-10-02T22:58:22.982Z,100729.13
2022-10-02T23:03:37.720Z,100737.69
2022-10-02T23:08:56.753Z,100739.03
2022-10-02T23:25:29.074Z,100747.44
2022-10-02T23:30:43.448Z,100754.00
2022-10-02T23:35:59.052Z,100752.44
2022-10-02T23:41:31.057Z,100763.19
2022-10-02T23:52:54.082Z,100769.72
2022-10-02T23:58:35.644Z,100777.00
